createdAt,value
2022-10-16T00:02:30.553Z,94.69
2022-10-16T00:05:02.369Z,94.87
2022-10-16T00:07:34.009Z,94.65
2022-10-16T00:10:06.206Z,94.91
2022-10-16T00:12:37.854Z,95.16
2022-10-16T00:15:11.321Z,95.43
2022-10-16T00:17:42.957Z,95.38
2022-10-16T00:20:14.511Z,95.09
2022-10-16T00:22:46.403Z,94.61
2022-10-16T00:25:18.026Z,94.83
2022-10-16T00:27:49.801Z,94.46
2022-10-16T00:30:24.416Z,94.58
2022-10-16T00:32:56.109Z,94.47
2022-10-16T00:35:28.920Z,94.24
2022-10-16T00:38:00.511Z,94.25
2022-10-16T00:40:32.699Z,94.20
2022-10-16T00:43:04.588Z,94.06
2022-10-16T00:45:36.243Z,94.08
2022-10-16T00:48:12.881Z,94.05
2022-10-16T00:50:44.790Z,93.87
2022-10-16T00:53:18.637Z,93.87
2022-10-16T00:55:50.195Z,93.73
2022-10-16T00:58:22.488Z,93.82
2022-10-16T01:00:54.093Z,94.06
2022-10-16T01:03:32.290Z,94.28
2022-10-16T01:06:18.310Z,94.02
2022-10-16T01:09:03.680Z,93.77
2022-10-16T01:11:40.808Z,93.73
2022-10-16T01:14:19.192Z,93.81
2022-10-16T01:16:55.632Z,93.85
2022-10-16T01:19:45.224Z,93.69
2022-10-16T01:22:18.351Z,93.82
2022-10-16T01:24:52.034Z,93.75
2022-10-16T01:27:27.848Z,93.85
2022-10-16T01:30:04.323Z,93.97
2022-10-16T01:32:42.101Z,93.74
2022-10-16T01:35:19.895Z,93.64
2022-10-16T01:37:55.471Z,93.50
2022-10-16T01:40:30.506Z,93.37
2022-10-16T01:43:06.524Z,93.50
2022-10-16T01:45:39.105Z,93.34
2022-10-16T01:48:13.892Z,93.49
2022-10-16T01:51:02.372Z,93.37
2022-10-16T01:53:34.818Z,93.34
2022-10-16T01:56:10.158Z,93.22
2022-10-16T01:58:48.422Z,93.22
2022-10-16T02:01:24.098Z,93.21
2022-10-16T02:03:59.823Z,93.28
2022-10-16T02:06:31.584Z,93.41
2022-10-16T02:09:03.549Z,93.25
2022-10-16T02:11:35.409Z,93.21
2022-10-16T02:14:08.119Z,93.23
2022-10-16T02:16:39.105Z,93.29
2022-10-16T02:19:11.854Z,93.23
2022-10-16T02:21:45.529Z,93.54
2022-10-16T02:24:33.599Z,93.54
2022-10-16T02:27:12.429Z,93.44
2022-10-16T02:29:50.821Z,93.38
2022-10-16T02:32:26.850Z,93.42
2022-10-16T02:35:00.436Z,93.52
2022-10-16T02:37:33.141Z,93.51
2022-10-16T02:40:06.036Z,93.54
2022-10-16T02:42:40.154Z,93.41
2022-10-16T02:45:13.516Z,93.53
2022-10-16T02:47:45.145Z,93.66
2022-10-16T02:50:17.226Z,93.60
2022-10-16T02:52:48.842Z,93.65
2022-10-16T02:55:20.464Z,93.51
2022-10-16T02:57:52.417Z,93.39
2022-10-16T03:00:24.047Z,93.52
2022-10-16T03:02:55.674Z,93.59
2022-10-16T03:05:28.028Z,93.55
2022-10-16T03:08:01.764Z,93.55
2022-10-16T03:10:32.172Z,93.69
2022-10-16T03:13:04.046Z,94.11
2022-10-16T03:15:35.580Z,94.46
2022-10-16T03:18:07.646Z,94.41
2022-10-16T03:20:39.381Z,94.52
2022-10-16T03:23:10.990Z,94.61
2022-10-16T03:25:42.792Z,94.56
2022-10-16T03:28:14.667Z,94.62
2022-10-16T03:30:46.397Z,95.11
2022-10-16T03:33:18.170Z,95.08
2022-10-16T03:35:56.490Z,95.14
2022-10-16T03:38:28.103Z,95.17
2022-10-16T03:40:59.680Z,95.28
2022-10-16T03:43:31.530Z,95.29
2022-10-16T03:46:03.105Z,95.32
2022-10-16T03:48:34.975Z,95.49
2022-10-16T03:51:06.819Z,95.62
2022-10-16T03:53:38.440Z,95.72
2022-10-16T03:56:10.350Z,95.75
2022-10-16T03:58:41.946Z,95.52
2022-10-16T04:01:13.769Z,95.74
2022-10-16T04:03:45.372Z,95.65
2022-10-16T04:06:17.093Z,95.56
2022-10-16T04:08:48.785Z,95.86
2022-10-16T04:11:20.408Z,95.80
2022-10-16T04:13:51.985Z,95.78
2022-10-16T04:16:23.655Z,95.68
2022-10-16T04:18:55.528Z,95.81
2022-10-16T04:21:27.112Z,95.90
2022-10-16T04:23:58.733Z,95.97
2022-10-16T04:26:30.416Z,97.22
2022-10-16T04:29:02.111Z,97.72
2022-10-16T04:31:33.842Z,97.14
2022-10-16T04:34:05.444Z,97.01
2022-10-16T04:36:37.649Z,97.49
2022-10-16T04:39:10.092Z,96.83
2022-10-16T04:41:42.642Z,97.03
2022-10-16T04:44:15.236Z,97.13
2022-10-16T04:46:46.850Z,97.16
2022-10-16T04:49:18.900Z,97.24
2022-10-16T04:51:50.601Z,97.60
2022-10-16T04:54:22.317Z,97.45
2022-10-16T04:56:53.915Z,97.55
2022-10-16T04:59:25.674Z,97.80
2022-10-16T05:01:57.307Z,97.86
2022-10-16T05:04:28.879Z,98.16
2022-10-16T05:07:00.460Z,98.07
2022-10-16T05:09:31.976Z,98.04
2022-10-16T05:12:04.464Z,98.13
2022-10-16T05:14:36.219Z,98.24
2022-10-16T05:17:07.748Z,98.72
2022-10-16T05:19:39.366Z,99.27
2022-10-16T05:22:11.024Z,99.18
2022-10-16T05:24:42.608Z,99.04
2022-10-16T05:27:19.903Z,98.93
2022-10-16T05:29:52.005Z,98.91
2022-10-16T05:32:23.614Z,98.85
2022-10-16T05:34:55.197Z,99.01
2022-10-16T05:37:27.121Z,99.12
2022-10-16T05:39:59.035Z,99.31
2022-10-16T05:42:30.773Z,99.42
2022-10-16T05:45:02.325Z,99.26
2022-10-16T05:47:34.034Z,99.17
2022-10-16T05:50:06.757Z,99.34
2022-10-16T05:52:36.955Z,99.34
2022-10-16T05:55:09.760Z,99.57
2022-10-16T05:57:41.410Z,99.44
2022-10-16T06:00:14.468Z,99.92
2022-10-16T06:02:46.097Z,100.00
2022-10-16T06:05:17.901Z,100.00
2022-10-16T06:07:49.620Z,99.97
2022-10-16T06:10:21.387Z,100.00
2022-10-16T06:12:53.138Z,100.00
2022-10-16T06:15:24.957Z,100.00
2022-10-16T06:17:56.586Z,99.98
2022-10-16T06:20:28.275Z,100.00
2022-10-16T06:23:00.376Z,100.00
2022-10-16T06:25:32.289Z,100.00
2022-10-16T06:28:03.945Z,100.00
2022-10-16T06:30:35.642Z,100.00
2022-10-16T06:33:07.314Z,100.00
2022-10-16T06:35:39.030Z,100.00
2022-10-16T06:38:10.749Z,100.00
2022-10-16T06:40:42.323Z,100.00
2022-10-16T06:43:13.942Z,100.00
2022-10-16T06:45:45.908Z,100.00
2022-10-16T06:48:17.563Z,100.00
2022-10-16T06:50:59.171Z,99.95
2022-10-16T06:53:40.060Z,99.89
2022-10-16T06:56:17.544Z,99.65
2022-10-16T06:58:50.066Z,99.36
2022-10-16T07:01:21.514Z,99.46
2022-10-16T07:03:53.813Z,99.29
2022-10-16T07:06:28.040Z,99.05
2022-10-16T07:08:59.708Z,98.67
2022-10-16T07:11:31.352Z,98.52
2022-10-16T07:14:03.490Z,98.08
2022-10-16T07:16:36.602Z,97.67
2022-10-16T07:19:08.291Z,97.07
2022-10-16T07:21:40.098Z,97.15
2022-10-16T07:24:16.279Z,97.47
2022-10-16T07:26:48.469Z,97.03
2022-10-16T07:29:22.587Z,96.50
2022-10-16T07:31:54.173Z,96.42
2022-10-16T07:34:25.814Z,95.81
2022-10-16T07:36:57.436Z,95.93
2022-10-16T07:39:29.185Z,95.69
2022-10-16T07:42:00.791Z,95.44
2022-10-16T07:44:32.440Z,95.18
2022-10-16T07:47:04.157Z,95.27
2022-10-16T07:49:35.739Z,95.21
2022-10-16T07:52:07.488Z,95.06
2022-10-16T07:54:39.085Z,94.61
2022-10-16T07:57:10.702Z,94.58
2022-10-16T07:59:42.395Z,94.73
2022-10-16T08:02:14.163Z,94.88
2022-10-16T08:04:48.519Z,94.81
2022-10-16T08:07:20.184Z,94.24
2022-10-16T08:09:53.985Z,94.12
2022-10-16T08:12:25.925Z,94.07
2022-10-16T08:14:57.653Z,93.73
2022-10-16T08:17:29.506Z,93.16
2022-10-16T08:20:01.217Z,93.06
2022-10-16T08:22:32.890Z,92.63
2022-10-16T08:25:04.560Z,92.44
2022-10-16T08:27:36.527Z,92.30
2022-10-16T08:30:10.812Z,92.30
2022-10-16T08:32:43.027Z,92.29
2022-10-16T08:35:16.248Z,92.11
2022-10-16T08:37:47.879Z,92.33
2022-10-16T08:43:18.840Z,91.96
2022-10-16T08:46:06.673Z,91.90
2022-10-16T08:48:46.898Z,91.60
2022-10-16T08:51:25.191Z,91.07
2022-10-16T08:53:59.604Z,90.67
2022-10-16T08:56:32.566Z,90.53
2022-10-16T08:59:06.879Z,89.78
2022-10-16T09:01:43.892Z,89.46
2022-10-16T09:04:54.173Z,89.36
2022-10-16T09:07:39.929Z,89.08
2022-10-16T09:10:23.279Z,88.89
2022-10-16T09:12:57.483Z,88.96
2022-10-16T09:15:38.110Z,88.39
2022-10-16T09:18:16.480Z,87.96
2022-10-16T09:20:55.550Z,87.38
2022-10-16T09:23:30.559Z,87.69
2022-10-16T09:26:03.909Z,87.72
2022-10-16T09:28:35.879Z,87.44
2022-10-16T09:31:07.681Z,86.98
2022-10-16T09:33:43.661Z,86.45
2022-10-16T09:36:17.011Z,85.57
2022-10-16T09:38:50.692Z,84.91
2022-10-16T09:41:26.105Z,85.05
2022-10-16T09:44:01.335Z,84.30
2022-10-16T09:46:37.618Z,83.86
2022-10-16T09:49:24.564Z,84.31
2022-10-16T09:52:07.733Z,84.18
2022-10-16T09:54:40.004Z,84.39
2022-10-16T09:57:21.662Z,83.90
2022-10-16T09:59:56.381Z,83.06
2022-10-16T10:02:32.879Z,83.64
2022-10-16T10:05:06.634Z,83.95
2022-10-16T10:07:46.854Z,84.36
2022-10-16T10:10:26.965Z,84.15
2022-10-16T10:13:00.205Z,84.23
2022-10-16T10:15:37.932Z,83.47
2022-10-16T10:18:22.685Z,84.04
2022-10-16T10:23:36.635Z,81.95
2022-10-16T10:26:14.676Z,81.28
2022-10-16T10:29:01.313Z,81.05
2022-10-16T10:31:38.426Z,80.88
2022-10-16T10:34:29.962Z,80.81
2022-10-16T10:37:08.848Z,80.84
2022-10-16T10:39:50.428Z,80.69
2022-10-16T10:42:33.480Z,80.56
2022-10-16T10:45:24.083Z,79.10
2022-10-16T10:48:14.621Z,77.38
2022-10-16T10:50:51.593Z,76.67
2022-10-16T10:53:35.333Z,77.39
2022-10-16T10:56:18.385Z,78.07
2022-10-16T10:59:11.049Z,77.86
2022-10-16T11:01:52.472Z,77.62
2022-10-16T11:04:45.139Z,77.84
2022-10-16T11:07:23.092Z,78.10
2022-10-16T11:09:59.857Z,78.08
2022-10-16T11:12:37.025Z,78.39
2022-10-16T11:15:17.574Z,78.23
2022-10-16T11:17:57.136Z,78.35
2022-10-16T11:20:32.083Z,77.82
2022-10-16T11:23:12.621Z,77.35
2022-10-16T11:25:45.733Z,77.09
2022-10-16T11:28:23.836Z,76.93
2022-10-16T11:31:02.377Z,76.78
2022-10-16T11:33:41.878Z,76.39
2022-10-16T11:36:18.778Z,75.47
2022-10-16T11:38:57.399Z,74.40
2022-10-16T11:41:37.671Z,74.16
2022-10-16T11:44:21.300Z,73.97
2022-10-16T11:47:28.773Z,73.18
2022-10-16T11:50:00.285Z,72.69
2022-10-16T11:52:40.781Z,72.31
2022-10-16T11:55:19.609Z,72.10
2022-10-16T11:57:55.983Z,71.65
2022-10-16T12:00:30.896Z,71.84
2022-10-16T12:03:13.315Z,72.09
2022-10-16T12:06:00.878Z,72.21
2022-10-16T12:08:35.621Z,72.54
2022-10-16T12:11:24.737Z,72.31
2022-10-16T12:14:09.596Z,72.61
2022-10-16T12:16:53.065Z,72.68
2022-10-16T12:19:26.341Z,72.59
2022-10-16T12:22:00.942Z,72.37
2022-10-16T12:24:41.955Z,71.97
2022-10-16T12:27:30.479Z,71.72
2022-10-16T12:30:06.839Z,71.68
2022-10-16T12:32:46.776Z,72.05
2022-10-16T12:35:25.837Z,72.23
2022-10-16T12:38:07.030Z,74.10
2022-10-16T12:40:41.104Z,72.22
2022-10-16T12:43:30.498Z,72.69
2022-10-16T12:46:23.608Z,72.19
2022-10-16T12:49:06.754Z,72.08
2022-10-16T12:51:41.058Z,71.39
2022-10-16T12:54:16.604Z,70.05
2022-10-16T12:57:01.264Z,68.67
2022-10-16T12:59:40.909Z,68.28
2022-10-16T13:02:45.963Z,67.52
2022-10-16T13:05:28.688Z,67.39
2022-10-16T13:08:04.879Z,66.39
2022-10-16T13:10:42.484Z,66.83
2022-10-16T13:13:36.452Z,67.18
2022-10-16T13:16:17.340Z,67.43
2022-10-16T13:19:00.001Z,67.84
2022-10-16T13:21:44.885Z,68.29
2022-10-16T13:24:28.053Z,68.99
2022-10-16T13:27:08.224Z,69.13
2022-10-16T13:29:42.222Z,69.28
2022-10-16T13:32:17.411Z,69.36
2022-10-16T13:34:51.078Z,69.59
2022-10-16T13:37:25.719Z,69.37
2022-10-16T13:40:09.614Z,69.86
2022-10-16T13:42:41.718Z,69.96
2022-10-16T13:45:23.524Z,70.08
2022-10-16T13:48:05.430Z,70.11
2022-10-16T13:50:37.360Z,69.71
2022-10-16T13:53:15.259Z,68.74
2022-10-16T13:55:46.884Z,69.16
2022-10-16T13:58:18.516Z,69.33
2022-10-16T14:01:00.559Z,74.81
2022-10-16T14:03:34.722Z,73.48
2022-10-16T14:06:14.605Z,74.53
2022-10-16T14:08:50.572Z,75.43
2022-10-16T14:11:27.021Z,70.73
2022-10-16T14:13:59.129Z,70.08
2022-10-16T14:16:33.726Z,69.75
2022-10-16T14:19:07.806Z,69.63
2022-10-16T14:21:42.430Z,69.46
2022-10-16T14:24:27.564Z,69.32
2022-10-16T14:26:59.557Z,70.01
2022-10-16T14:29:33.099Z,70.44
2022-10-16T14:32:06.557Z,69.22
2022-10-16T14:34:41.278Z,69.87
2022-10-16T14:37:28.105Z,69.89
2022-10-16T14:40:16.456Z,70.29
2022-10-16T14:42:49.934Z,70.86
2022-10-16T14:45:26.925Z,69.81
2022-10-16T14:48:01.258Z,70.15
2022-10-16T14:50:32.960Z,69.89
2022-10-16T14:53:10.694Z,69.77
2022-10-16T14:55:43.223Z,69.89
2022-10-16T14:58:19.730Z,70.01
2022-10-16T15:00:51.913Z,69.95
2022-10-16T15:03:24.172Z,69.72
2022-10-16T15:05:56.214Z,69.33
2022-10-16T15:08:28.013Z,69.51
2022-10-16T15:10:59.776Z,69.61
2022-10-16T15:13:31.978Z,69.51
2022-10-16T15:16:03.942Z,69.40
2022-10-16T15:18:37.303Z,69.54
2022-10-16T15:21:10.031Z,69.96
2022-10-16T15:23:40.607Z,69.87
2022-10-16T15:26:13.279Z,70.13
2022-10-16T15:28:43.817Z,70.13
2022-10-16T15:31:15.652Z,70.26
2022-10-16T15:33:53.880Z,70.66
2022-10-16T15:36:35.227Z,70.55
2022-10-16T15:39:08.262Z,70.80
2022-10-16T15:44:13.842Z,71.18
2022-10-16T15:46:45.630Z,71.58
2022-10-16T15:49:18.341Z,71.57
2022-10-16T15:51:50.041Z,71.68
2022-10-16T15:54:24.154Z,71.66
2022-10-16T15:56:56.669Z,72.02
2022-10-16T15:59:29.022Z,72.42
2022-10-16T16:02:00.797Z,72.63
2022-10-16T16:04:50.579Z,72.54
2022-10-16T16:07:23.162Z,72.85
2022-10-16T16:09:53.517Z,72.77
2022-10-16T16:12:25.628Z,72.94
2022-10-16T16:15:00.768Z,73.14
2022-10-16T16:17:37.578Z,73.34
2022-10-16T16:20:14.758Z,73.65
2022-10-16T16:22:46.814Z,73.95
2022-10-16T16:25:18.451Z,74.00
2022-10-16T16:27:52.253Z,74.18
2022-10-16T16:30:28.200Z,74.90
2022-10-16T16:33:05.021Z,74.78
2022-10-16T16:35:36.893Z,75.33
2022-10-16T16:38:08.462Z,75.64
2022-10-16T16:40:40.186Z,75.53
2022-10-16T16:43:13.477Z,75.89
2022-10-16T16:45:43.646Z,75.98
2022-10-16T16:48:15.485Z,76.21
2022-10-16T16:50:47.374Z,76.72
2022-10-16T16:53:19.125Z,76.77
2022-10-16T16:55:50.975Z,77.03
2022-10-16T16:58:22.805Z,77.24
2022-10-16T17:00:56.973Z,77.28
2022-10-16T17:03:44.988Z,77.35
2022-10-16T17:06:20.522Z,77.53
2022-10-16T17:08:54.054Z,77.83
2022-10-16T17:11:25.992Z,78.12
2022-10-16T17:13:59.388Z,78.13
2022-10-16T17:16:34.350Z,78.38
2022-10-16T17:19:08.088Z,78.66
2022-10-16T17:21:41.050Z,78.89
2022-10-16T17:24:14.938Z,79.48
2022-10-16T17:26:49.051Z,79.65
2022-10-16T17:29:21.374Z,79.65
2022-10-16T17:31:53.181Z,80.25
2022-10-16T17:34:25.128Z,80.86
2022-10-16T17:36:57.219Z,80.70
2022-10-16T17:39:29.482Z,81.45
2022-10-16T17:42:02.958Z,81.77
2022-10-16T17:44:34.998Z,82.45
2022-10-16T17:47:07.400Z,82.58
2022-10-16T17:49:40.045Z,82.40
2022-10-16T17:52:11.950Z,82.21
2022-10-16T17:54:44.334Z,82.32
2022-10-16T17:57:16.079Z,82.76
2022-10-16T17:59:48.219Z,82.87
2022-10-16T18:02:20.335Z,83.15
2022-10-16T18:04:52.990Z,83.46
2022-10-16T18:07:23.139Z,83.27
2022-10-16T18:10:10.297Z,83.27
2022-10-16T18:12:42.597Z,82.98
2022-10-16T18:15:14.594Z,83.00
2022-10-16T18:17:46.380Z,83.19
2022-10-16T18:20:18.071Z,83.08
2022-10-16T18:22:50.530Z,83.17
2022-10-16T18:25:22.896Z,83.11
2022-10-16T18:27:55.585Z,83.21
2022-10-16T18:30:27.909Z,83.21
2022-10-16T18:32:59.753Z,83.41
2022-10-16T18:35:32.095Z,83.36
2022-10-16T18:38:03.773Z,83.21
2022-10-16T18:40:38.595Z,83.38
2022-10-16T18:43:11.001Z,83.83
2022-10-16T18:45:44.055Z,84.00
2022-10-16T18:48:16.226Z,83.67
2022-10-16T18:50:48.305Z,83.93
2022-10-16T18:53:21.620Z,84.07
2022-10-16T18:55:56.584Z,84.12
2022-10-16T18:58:28.746Z,84.32
2022-10-16T19:01:03.632Z,84.22
2022-10-16T19:03:35.951Z,84.51
2022-10-16T19:06:12.550Z,84.60
2022-10-16T19:08:45.562Z,84.73
2022-10-16T19:11:16.712Z,84.86
2022-10-16T19:13:50.265Z,85.34
2022-10-16T19:16:24.138Z,85.51
2022-10-16T19:18:57.651Z,85.81
2022-10-16T19:21:31.091Z,85.90
2022-10-16T19:24:04.318Z,86.33
2022-10-16T19:26:38.232Z,87.20
2022-10-16T19:29:13.625Z,86.71
2022-10-16T19:31:45.490Z,86.29
2022-10-16T19:34:17.556Z,86.63
2022-10-16T19:36:51.182Z,86.68
2022-10-16T19:39:23.887Z,87.01
2022-10-16T19:41:56.164Z,87.39
2022-10-16T19:44:28.428Z,88.12
2022-10-16T19:47:00.502Z,88.68
2022-10-16T19:49:32.397Z,88.97
2022-10-16T19:52:04.461Z,88.68
2022-10-16T19:54:39.029Z,88.81
2022-10-16T19:57:10.745Z,89.30
2022-10-16T19:59:44.934Z,89.74
2022-10-16T20:02:18.229Z,89.98
2022-10-16T20:04:50.161Z,90.03
2022-10-16T20:07:23.473Z,91.23
2022-10-16T20:09:55.779Z,90.69
2022-10-16T20:12:27.939Z,90.51
2022-10-16T20:15:00.093Z,90.47
2022-10-16T20:17:32.004Z,90.21
2022-10-16T20:20:03.579Z,91.33
2022-10-16T20:22:35.877Z,90.77
2022-10-16T20:25:10.191Z,90.06
2022-10-16T20:27:42.980Z,89.81
2022-10-16T20:30:15.303Z,90.70
2022-10-16T20:32:46.857Z,91.51
2022-10-16T20:35:18.548Z,91.85
2022-10-16T20:37:50.591Z,91.48
2022-10-16T20:40:22.239Z,90.65
2022-10-16T20:42:54.131Z,90.45
2022-10-16T20:45:26.636Z,90.34
2022-10-16T20:47:58.775Z,90.09
2022-10-16T20:50:33.170Z,89.68
2022-10-16T20:53:04.884Z,89.41
2022-10-16T20:55:38.681Z,89.95
2022-10-16T20:58:12.833Z,90.53
2022-10-16T21:00:44.927Z,90.47
2022-10-16T21:03:16.981Z,90.37
2022-10-16T21:05:49.225Z,91.13
2022-10-16T21:08:21.185Z,91.74
2022-10-16T21:10:52.930Z,91.76
2022-10-16T21:13:28.209Z,91.46
2022-10-16T21:16:03.200Z,91.19
2022-10-16T21:18:34.835Z,91.60
2022-10-16T21:21:06.718Z,91.99
2022-10-16T21:23:39.115Z,93.43
2022-10-16T21:26:11.655Z,92.72
2022-10-16T21:28:43.770Z,94.66
2022-10-16T21:31:18.961Z,92.87
2022-10-16T21:33:52.761Z,93.32
2022-10-16T21:36:27.016Z,94.45
2022-10-16T21:39:01.423Z,92.86
2022-10-16T21:41:33.340Z,91.37
2022-10-16T21:44:08.737Z,91.54
2022-10-16T21:46:43.172Z,92.13
2022-10-16T21:49:17.430Z,92.86
2022-10-16T21:51:53.787Z,93.00
2022-10-16T21:54:27.328Z,93.13
2022-10-16T21:56:59.449Z,93.72
2022-10-16T21:59:31.260Z,93.36
2022-10-16T22:02:03.350Z,93.28
2022-10-16T22:04:35.532Z,93.57
2022-10-16T22:07:07.411Z,94.42
2022-10-16T22:09:39.408Z,93.71
2022-10-16T22:12:11.388Z,94.35
2022-10-16T22:14:43.787Z,94.55
2022-10-16T22:17:18.627Z,94.17
2022-10-16T22:19:51.124Z,93.62
2022-10-16T22:22:22.864Z,93.72
2022-10-16T22:24:54.617Z,93.32
2022-10-16T22:27:26.978Z,93.12
2022-10-16T22:29:58.876Z,94.38
2022-10-16T22:32:30.526Z,96.11
2022-10-16T22:35:02.710Z,97.31
2022-10-16T22:37:35.002Z,96.91
2022-10-16T22:40:08.258Z,96.41
2022-10-16T22:42:42.308Z,96.34
2022-10-16T22:45:14.136Z,95.35
2022-10-16T22:47:46.560Z,94.26
2022-10-16T22:50:18.885Z,93.50
2022-10-16T22:52:49.288Z,93.47
2022-10-16T22:55:21.358Z,93.87
2022-10-16T22:57:56.504Z,94.32
2022-10-16T23:00:29.377Z,94.07
2022-10-16T23:02:59.420Z,95.10
2022-10-16T23:05:31.129Z,96.26
2022-10-16T23:08:02.914Z,96.11
2022-10-16T23:10:35.012Z,95.53
2022-10-16T23:13:07.338Z,95.21
2022-10-16T23:15:42.860Z,95.01
2022-10-16T23:18:14.975Z,94.69
2022-10-16T23:20:46.594Z,95.50
2022-10-16T23:23:18.295Z,96.47
2022-10-16T23:25:49.854Z,97.01
2022-10-16T23:28:21.633Z,97.01
2022-10-16T23:30:53.938Z,96.66
2022-10-16T23:33:25.502Z,96.98
2022-10-16T23:35:59.131Z,98.09
2022-10-16T23:38:31.257Z,99.72
2022-10-16T23:41:03.184Z,99.85
2022-10-16T23:43:35.293Z,98.72
2022-10-16T23:46:09.969Z,98.37
2022-10-16T23:48:42.485Z,99.39
2022-10-16T23:51:14.634Z,99.22
2022-10-16T23:53:46.473Z,98.58
2022-10-16T23:56:18.036Z,98.30
2022-10-16T23:58:49.709Z,98.04
